createdAt,value
2023-05-10T03:12:56.905Z,11.92
2023-05-10T03:16:10.962Z,11.92
2023-05-10T03:19:39.443Z,11.27
2023-05-10T03:22:47.918Z,11.22
2023-05-10T03:25:51.727Z,11.19
2023-05-10T03:28:55.076Z,11.26
2023-05-10T03:32:00.321Z,11.20
2023-05-10T03:35:10.302Z,11.26
2023-05-10T03:38:15.682Z,11.12
2023-05-10T03:41:18.175Z,11.21
2023-05-10T03:44:20.422Z,11.30
2023-05-10T03:47:22.874Z,11.32
2023-05-10T03:50:25.593Z,11.48
2023-05-10T03:53:28.049Z,11.57
2023-05-10T03:56:31.062Z,11.57
2023-05-10T03:59:33.863Z,11.62
2023-05-10T04:02:36.182Z,11.71
2023-05-10T04:05:38.784Z,11.83
2023-05-10T04:08:40.976Z,11.87
2023-05-10T04:11:43.621Z,11.74
2023-05-10T04:14:45.783Z,11.64
2023-05-10T04:17:48.273Z,11.61
2023-05-10T04:20:50.463Z,11.58
2023-05-10T04:23:52.920Z,11.59
2023-05-10T04:26:57.630Z,11.63
2023-05-10T04:30:00.420Z,11.58
2023-05-10T04:33:05.060Z,11.64
2023-05-10T04:36:07.792Z,11.65
2023-05-10T04:39:10.775Z,11.78
2023-05-10T04:42:13.444Z,11.68
2023-05-10T04:45:15.714Z,11.81
2023-05-10T04:48:18.145Z,11.96
2023-05-10T04:51:21.448Z,11.89
2023-05-10T04:54:23.972Z,11.96
2023-05-10T04:57:26.254Z,12.11
2023-05-10T05:00:29.031Z,12.25
2023-05-10T05:03:31.378Z,12.33
2023-05-10T05:06:34.054Z,12.67
2023-05-10T05:09:37.005Z,12.98
2023-05-10T05:12:39.475Z,13.28
2023-05-10T05:15:41.727Z,13.68
2023-05-10T05:18:44.316Z,13.79
2023-05-10T05:21:46.679Z,14.03
2023-05-10T05:24:49.156Z,14.09
2023-05-10T05:27:51.301Z,14.03
2023-05-10T05:30:54.072Z,13.74
2023-05-10T05:33:56.615Z,13.63
2023-05-10T05:36:59.131Z,13.78
2023-05-10T05:43:10.120Z,14.08
2023-05-10T05:49:19.986Z,14.94
2023-05-10T05:52:22.267Z,14.60
2023-05-10T05:55:25.341Z,15.09
2023-05-10T05:58:27.909Z,15.16
2023-05-10T06:01:30.352Z,15.53
2023-05-10T06:04:32.809Z,15.97
2023-05-10T06:07:35.172Z,15.91
2023-05-10T06:10:38.192Z,16.19
2023-05-10T06:13:40.748Z,15.66
2023-05-10T06:16:50.730Z,16.17
2023-05-10T06:19:56.327Z,16.33
2023-05-10T06:22:59.629Z,16.56
2023-05-10T06:26:01.839Z,16.95
2023-05-10T06:29:04.687Z,17.19
2023-05-10T06:32:08.372Z,17.48
2023-05-10T06:35:11.027Z,17.64
2023-05-10T06:38:13.208Z,17.68
2023-05-10T06:41:15.586Z,17.40
2023-05-10T06:44:18.210Z,17.44
2023-05-10T06:47:20.879Z,17.55
2023-05-10T06:50:23.279Z,17.73
2023-05-10T06:53:25.848Z,18.03
2023-05-10T06:56:28.347Z,18.54
2023-05-10T06:59:30.790Z,18.23
2023-05-10T07:02:33.166Z,18.18
2023-05-10T07:05:35.817Z,18.25
2023-05-10T07:08:38.248Z,18.33
2023-05-10T07:11:40.669Z,19.11
2023-05-10T07:14:43.301Z,19.28
2023-05-10T07:17:46.553Z,18.60
2023-05-10T07:20:48.847Z,18.46
2023-05-10T07:23:51.284Z,18.99
2023-05-10T07:26:53.497Z,18.71
2023-05-10T07:29:57.500Z,18.39
2023-05-10T07:33:00.254Z,18.41
2023-05-10T07:36:02.876Z,18.10
2023-05-10T07:39:06.337Z,18.87
2023-05-10T07:42:09.258Z,20.13
2023-05-10T07:45:11.913Z,19.02
2023-05-10T07:48:14.419Z,19.73
2023-05-10T07:51:16.711Z,19.83
2023-05-10T07:54:19.197Z,18.45
2023-05-10T07:57:21.898Z,17.33
2023-05-10T08:00:24.319Z,17.39
2023-05-10T08:03:26.737Z,18.77
2023-05-10T08:06:30.820Z,19.22
2023-05-10T08:09:33.401Z,18.53
2023-05-10T08:12:35.549Z,17.94
2023-05-10T08:15:38.014Z,17.75
2023-05-10T08:18:41.161Z,17.70
2023-05-10T08:21:43.606Z,17.79
2023-05-10T08:24:47.284Z,17.64
2023-05-10T08:27:50.355Z,19.21
2023-05-10T08:30:52.538Z,19.83
2023-05-10T08:33:54.987Z,19.88
2023-05-10T08:36:57.151Z,19.31
2023-05-10T08:39:59.612Z,19.38
2023-05-10T08:43:10.061Z,20.06
2023-05-10T08:46:18.390Z,20.57
2023-05-10T08:49:21.158Z,19.97
2023-05-10T08:52:26.817Z,19.33
2023-05-10T08:55:29.314Z,19.18
2023-05-10T08:58:32.066Z,20.55
2023-05-10T09:01:37.498Z,20.10
2023-05-10T09:04:40.098Z,19.22
2023-05-10T09:07:42.984Z,19.46
2023-05-10T09:10:48.248Z,20.07
2023-05-10T09:13:53.527Z,19.83
2023-05-10T09:16:57.422Z,19.93
2023-05-10T09:20:00.766Z,21.50
2023-05-10T09:23:03.562Z,22.84
2023-05-10T09:26:06.617Z,24.15
2023-05-10T09:29:09.436Z,23.78
2023-05-10T09:32:13.922Z,21.92
2023-05-10T09:35:27.994Z,22.37
2023-05-10T09:38:48.346Z,23.51
2023-05-10T09:41:55.929Z,23.29
2023-05-10T09:45:16.016Z,22.64
2023-05-10T09:48:18.633Z,23.36
2023-05-10T09:51:25.489Z,25.17
2023-05-10T09:54:28.068Z,23.94
2023-05-10T09:57:30.561Z,22.63
2023-05-10T10:00:37.892Z,22.24
2023-05-10T10:03:44.452Z,20.68
2023-05-10T10:06:46.734Z,22.35
2023-05-10T10:09:49.466Z,24.07
2023-05-10T10:12:52.846Z,24.77
2023-05-10T10:15:55.698Z,25.60
2023-05-10T10:18:58.194Z,23.20
2023-05-10T10:22:01.354Z,24.51
2023-05-10T10:25:05.125Z,29.14
2023-05-10T10:28:28.398Z,28.59
2023-05-10T10:31:53.209Z,32.43
2023-05-10T10:34:57.235Z,31.09
2023-05-10T10:37:59.781Z,30.41
2023-05-10T10:41:28.232Z,35.68
2023-05-10T10:44:34.627Z,37.83
2023-05-10T10:47:38.335Z,39.50
2023-05-10T10:50:47.865Z,36.69
2023-05-10T10:53:50.722Z,31.49
2023-05-10T10:57:15.368Z,34.36
2023-05-10T11:00:37.919Z,31.44
2023-05-10T11:03:40.315Z,26.19
2023-05-10T11:06:43.546Z,28.50
2023-05-10T11:09:48.280Z,31.19
2023-05-10T11:13:02.028Z,33.07
2023-05-10T11:16:14.893Z,28.71
2023-05-10T11:19:18.833Z,27.89
2023-05-10T11:22:20.967Z,25.39
2023-05-10T11:25:29.557Z,25.26
2023-05-10T11:28:31.807Z,24.21
2023-05-10T11:31:34.426Z,24.52
2023-05-10T11:34:36.590Z,24.52
2023-05-10T11:37:44.307Z,24.26
2023-05-10T11:40:46.595Z,23.89
2023-05-10T11:43:52.055Z,23.55
2023-05-10T11:46:54.256Z,23.68
2023-05-10T11:49:56.851Z,22.20
2023-05-10T11:53:02.017Z,21.78
2023-05-10T11:56:11.554Z,21.93
2023-05-10T11:59:15.717Z,22.50
2023-05-10T12:02:18.201Z,21.83
2023-05-10T12:05:20.879Z,22.12
2023-05-10T12:08:25.332Z,22.13
2023-05-10T12:11:29.287Z,22.43
2023-05-10T12:14:36.108Z,21.73
2023-05-10T12:17:42.685Z,21.87
2023-05-10T12:20:45.842Z,21.95
2023-05-10T12:23:51.829Z,22.85
2023-05-10T12:26:53.982Z,22.17
2023-05-10T12:29:56.464Z,21.85
2023-05-10T12:33:10.645Z,20.96
2023-05-10T12:36:15.468Z,20.84
2023-05-10T12:39:17.622Z,21.12
2023-05-10T12:42:20.033Z,21.24
2023-05-10T12:45:23.069Z,20.74
2023-05-10T12:48:25.919Z,21.09
2023-05-10T12:51:28.083Z,21.40
2023-05-10T12:54:30.810Z,21.27
2023-05-10T12:57:33.046Z,20.38
2023-05-10T13:00:35.547Z,20.29
2023-05-10T13:03:37.644Z,20.90
2023-05-10T13:06:40.279Z,21.41
2023-05-10T13:09:42.466Z,21.75
2023-05-10T13:12:46.298Z,21.32
2023-05-10T13:15:48.470Z,21.06
2023-05-10T13:18:50.925Z,21.66
2023-05-10T13:21:53.135Z,21.42
2023-05-10T13:24:55.517Z,21.35
2023-05-10T13:27:57.750Z,21.75
2023-05-10T13:31:01.005Z,20.50
2023-05-10T13:34:03.686Z,20.74
2023-05-10T13:37:06.370Z,20.77
2023-05-10T13:40:09.153Z,21.08
2023-05-10T13:43:11.811Z,21.40
2023-05-10T13:46:13.951Z,21.57
2023-05-10T13:49:16.390Z,21.21
2023-05-10T13:52:19.151Z,21.24
2023-05-10T13:55:21.587Z,21.51
2023-05-10T13:58:24.625Z,21.12
2023-05-10T14:01:27.218Z,20.12
2023-05-10T14:04:30.622Z,20.33
2023-05-10T14:07:32.762Z,20.46
2023-05-10T14:10:35.251Z,20.79
2023-05-10T14:13:37.506Z,21.15
2023-05-10T14:16:44.053Z,20.98
2023-05-10T14:19:46.328Z,21.09
2023-05-10T14:22:48.761Z,21.18
2023-05-10T14:25:52.317Z,20.85
2023-05-10T14:28:54.899Z,20.91
2023-05-10T14:31:57.124Z,21.41
2023-05-10T14:35:00.475Z,20.90
2023-05-10T14:38:05.703Z,20.54
2023-05-10T14:41:09.966Z,20.18
2023-05-10T14:44:13.492Z,19.94
2023-05-10T14:47:15.872Z,20.28
2023-05-10T14:50:32.192Z,20.59
2023-05-10T14:53:38.156Z,21.08
2023-05-10T14:56:42.443Z,21.13
2023-05-10T14:59:46.428Z,21.45
2023-05-10T15:02:49.371Z,21.49
2023-05-10T15:05:53.048Z,21.15
2023-05-10T15:08:55.168Z,20.91
2023-05-10T15:11:57.547Z,20.51
2023-05-10T15:14:59.692Z,20.16
2023-05-10T15:18:02.121Z,19.79
2023-05-10T15:21:04.270Z,19.46
2023-05-10T15:24:07.087Z,19.38
